Time;durP1;ratioP1;P1;durP2;ratioP2;P2;SDS_P1;SDS_P2;PMS_P1;PMS_P2;Temp;Humidity;BMP_temperature;BMP_pressure;BME280_temperature;BME280_humidity;BME280_pressure;Samples;Min_cycle;Max_cycle;Signal;HPM_P1;HPM_P2
2023/04/30 00:01:07;;;;;;;7.05;1.35;;;12.60;92.60;;;;;;1948300;74;21229;-47
2023/04/30 00:03:36;;;;;;;2.40;1.25;;;12.50;92.50;;;;;;1948432;74;21211;-47
2023/04/30 00:06:05;;;;;;;2.30;1.22;;;12.50;92.50;;;;;;1948297;74;21445;-47
2023/04/30 00:08:35;;;;;;;3.72;1.15;;;12.50;92.50;;;;;;1948340;74;21140;-48
2023/04/30 00:11:04;;;;;;;1.60;1.07;;;12.50;92.50;;;;;;1948299;74;21090;-47
2023/04/30 00:13:33;;;;;;;2.67;0.95;;;12.50;92.50;;;;;;1948441;74;21184;-47
2023/04/30 00:16:02;;;;;;;1.90;1.17;;;12.50;92.50;;;;;;1948323;74;21114;-48
2023/04/30 00:18:31;;;;;;;2.75;1.10;;;12.50;92.50;;;;;;1948366;74;21575;-48
2023/04/30 00:21:01;;;;;;;2.45;1.20;;;12.50;92.70;;;;;;1948308;74;21100;-47
2023/04/30 00:23:30;;;;;;;2.67;1.15;;;12.50;92.50;;;;;;1948459;74;21035;-47
2023/04/30 00:25:59;;;;;;;1.45;1.10;;;12.50;92.40;;;;;;1948370;74;21247;-47
2023/04/30 00:28:28;;;;;;;3.58;1.05;;;12.50;92.40;;;;;;1948309;74;21141;-47
2023/04/30 00:30:57;;;;;;;3.12;1.20;;;12.50;92.30;;;;;;1948307;74;21067;-48
2023/04/30 00:33:27;;;;;;;5.08;1.22;;;12.50;92.20;;;;;;1948382;74;21162;-47
2023/04/30 00:35:56;;;;;;;2.55;1.17;;;12.40;92.20;;;;;;1948284;74;21058;-47
2023/04/30 00:38:25;;;;;;;2.55;1.30;;;12.40;92.10;;;;;;1948424;74;21153;-47
2023/04/30 00:40:55;;;;;;;1.90;1.40;;;12.40;92.20;;;;;;1951218;73;21175;-47
2023/04/30 00:43:24;;;;;;;3.83;1.30;;;12.40;92.30;;;;;;1958562;73;21661;-47
2023/04/30 00:45:53;;;;;;;7.45;1.60;;;12.40;92.30;;;;;;1958665;73;21031;-47
2023/04/30 00:48:25;;;;;;;3.12;1.30;;;12.40;92.30;;;;;;1958303;73;21117;-47
2023/04/30 00:50:54;;;;;;;3.50;1.32;;;12.40;92.20;;;;;;1958519;73;21133;-47
2023/04/30 00:53:23;;;;;;;3.58;1.40;;;12.40;92.20;;;;;;1958587;73;21076;-47
2023/04/30 00:55:52;;;;;;;3.52;1.47;;;12.30;92.20;;;;;;1958638;73;21219;-47
2023/04/30 00:58:22;;;;;;;2.35;1.37;;;12.30;92.20;;;;;;1958582;73;20999;-47
2023/04/30 01:00:51;;;;;;;2.00;1.40;;;12.30;92.20;;;;;;1958623;73;21082;-46
2023/04/30 01:03:21;;;;;;;6.03;2.45;;;12.30;92.30;;;;;;1958838;73;21050;-49
2023/04/30 01:05:52;;;;;;;3.10;1.42;;;12.30;92.30;;;;;;1958668;73;21083;-48
2023/04/30 01:08:21;;;;;;;1.70;1.35;;;12.30;92.40;;;;;;1958798;73;21568;-47
2023/04/30 01:11:23;;;;;;;2.67;1.15;;;12.30;92.50;;;;;;1958658;73;21109;-48
2023/04/30 01:14:04;;;;;;;3.70;1.45;;;12.30;92.60;;;;;;1958086;73;21137;-49
2023/04/30 01:16:36;;;;;;;1.30;1.20;;;12.30;92.60;;;;;;1958462;73;21719;-49
2023/04/30 01:19:11;;;;;;;8.63;1.40;;;12.30;92.60;;;;;;1957307;73;21181;-48
2023/04/30 01:21:42;;;;;;;2.27;1.35;;;12.40;92.60;;;;;;1957453;73;21074;-49
2023/04/30 01:24:22;;;;;;;3.42;1.10;;;12.40;92.60;;;;;;1958805;73;21042;-48
2023/04/30 01:27:09;;;;;;;2.10;1.57;;;12.50;92.60;;;;;;1958780;73;21277;-49
2023/04/30 01:29:42;;;;;;;3.47;1.40;;;12.50;92.50;;;;;;1957082;73;21654;-48
2023/04/30 01:32:11;;;;;;;1.87;1.32;;;12.50;92.30;;;;;;1958774;73;21034;-49
2023/04/30 01:34:41;;;;;;;2.67;1.25;;;12.40;92.40;;;;;;1958888;73;21020;-49
2023/04/30 01:37:14;;;;;;;4.37;1.67;;;12.40;92.40;;;;;;1958747;73;21076;-49
2023/04/30 01:40:04;;;;;;;3.85;1.60;;;12.40;92.50;;;;;;1958312;73;21042;-49
2023/04/30 01:42:38;;;;;;;2.77;1.12;;;12.40;92.40;;;;;;1958625;73;21117;-49
2023/04/30 01:45:16;;;;;;;2.25;1.40;;;12.40;92.40;;;;;;1958561;73;21014;-49
2023/04/30 01:47:53;;;;;;;2.98;1.20;;;12.40;92.30;;;;;;1958644;73;21461;-48
2023/04/30 01:50:31;;;;;;;4.33;1.45;;;12.40;92.40;;;;;;1956800;73;21509;-48
2023/04/30 01:53:02;;;;;;;3.80;1.22;;;12.40;92.40;;;;;;1876466;76;21594;-49
2023/04/30 01:55:34;;;;;;;7.25;1.50;;;12.40;92.40;;;;;;1958685;73;21123;-48
2023/04/30 01:58:05;;;;;;;5.30;1.60;;;12.40;92.40;;;;;;1876573;76;21684;-48
2023/04/30 02:00:34;;;;;;;3.70;1.30;;;12.40;92.40;;;;;;1957465;73;21587;-48
2023/04/30 02:03:04;;;;;;;2.05;1.32;;;12.40;92.40;;;;;;1958692;73;21513;-48
2023/04/30 02:05:33;;;;;;;3.87;2.02;;;12.40;92.20;;;;;;1958691;73;21129;-48
2023/04/30 02:08:02;;;;;;;4.75;1.45;;;12.30;92.30;;;;;;1958948;73;21157;-49
2023/04/30 02:10:31;;;;;;;2.08;1.20;;;12.30;92.40;;;;;;1958909;73;21009;-49
2023/04/30 02:13:01;;;;;;;2.62;1.10;;;12.30;92.30;;;;;;1958794;73;21279;-48
2023/04/30 02:15:30;;;;;;;3.02;1.10;;;12.30;92.30;;;;;;1959031;73;21107;-48
2023/04/30 02:17:59;;;;;;;3.00;1.10;;;12.20;92.40;;;;;;1958826;73;21177;-48
2023/04/30 02:20:28;;;;;;;2.22;1.30;;;12.30;92.50;;;;;;1958855;73;21504;-48
2023/04/30 02:22:57;;;;;;;3.92;1.05;;;12.20;92.40;;;;;;1958998;73;21579;-48
2023/04/30 02:25:26;;;;;;;4.75;1.20;;;12.30;92.40;;;;;;1958848;73;21072;-48
2023/04/30 02:27:55;;;;;;;6.72;1.90;;;12.30;92.40;;;;;;1958809;73;21018;-48
2023/04/30 02:30:25;;;;;;;3.47;1.30;;;12.30;92.40;;;;;;1958824;73;21204;-49
2023/04/30 02:32:54;;;;;;;2.58;1.30;;;12.30;92.30;;;;;;1958745;73;21149;-48
2023/04/30 02:35:23;;;;;;;4.30;1.25;;;12.30;92.40;;;;;;1958864;73;21090;-48
2023/04/30 02:37:52;;;;;;;3.35;1.37;;;12.30;92.40;;;;;;1958895;73;21156;-48
2023/04/30 02:40:21;;;;;;;1.70;1.17;;;12.30;92.30;;;;;;1958679;73;21552;-49
2023/04/30 02:42:52;;;;;;;3.00;1.47;;;12.30;92.30;;;;;;1952818;73;21533;-48
2023/04/30 02:45:21;;;;;;;2.15;1.25;;;12.30;92.40;;;;;;1948487;74;21011;-48
2023/04/30 02:47:50;;;;;;;3.05;1.15;;;12.30;92.30;;;;;;1948501;74;21152;-48
2023/04/30 02:50:20;;;;;;;4.37;1.47;;;12.30;92.30;;;;;;1948390;74;21134;-48
2023/04/30 02:52:49;;;;;;;3.08;1.55;;;12.30;92.30;;;;;;1948518;74;21270;-48
2023/04/30 02:55:18;;;;;;;2.90;1.25;;;12.30;92.30;;;;;;1948352;74;21686;-48
2023/04/30 02:57:47;;;;;;;3.85;1.32;;;12.30;92.20;;;;;;1948492;74;21148;-48
2023/04/30 03:00:17;;;;;;;2.45;1.20;;;12.30;92.20;;;;;;1948504;74;21068;-48
2023/04/30 03:02:46;;;;;;;3.08;1.20;;;12.30;92.30;;;;;;1948430;74;21189;-48
2023/04/30 03:05:15;;;;;;;4.17;1.77;;;12.30;92.30;;;;;;1948392;74;21167;-48
2023/04/30 03:07:44;;;;;;;2.75;1.20;;;12.30;92.10;;;;;;1948345;74;21111;-48
2023/04/30 03:10:14;;;;;;;3.10;1.17;;;12.30;92.10;;;;;;1948356;74;21138;-48
2023/04/30 03:12:43;;;;;;;4.17;1.70;;;12.30;92.20;;;;;;1948477;74;21189;-48
2023/04/30 03:15:12;;;;;;;4.67;1.27;;;12.20;92.20;;;;;;1948363;74;21133;-48
2023/04/30 03:17:41;;;;;;;5.12;1.47;;;12.20;92.40;;;;;;1948424;74;21010;-49
2023/04/30 03:20:11;;;;;;;1.70;1.00;;;12.20;92.40;;;;;;1948346;74;21573;-48
2023/04/30 03:22:40;;;;;;;4.10;1.77;;;12.20;92.00;;;;;;1948384;74;21073;-48
2023/04/30 03:25:10;;;;;;;1.72;1.20;;;12.20;92.10;;;;;;1948478;73;21207;-48
2023/04/30 03:27:40;;;;;;;3.12;1.35;;;12.20;92.10;;;;;;1948479;74;21598;-49
2023/04/30 03:30:09;;;;;;;5.90;1.42;;;12.20;92.00;;;;;;1948557;74;21053;-48
2023/04/30 03:32:39;;;;;;;4.10;1.40;;;12.20;91.90;;;;;;1948865;74;21075;-48
2023/04/30 03:35:09;;;;;;;4.83;1.75;;;12.20;91.80;;;;;;1948662;74;21145;-48
2023/04/30 03:37:37;;;;;;;3.87;1.50;;;12.20;91.70;;;;;;1948822;74;21138;-48
2023/04/30 03:40:07;;;;;;;3.62;1.30;;;12.20;91.80;;;;;;1948539;74;21046;-48
2023/04/30 03:42:37;;;;;;;4.53;1.47;;;12.20;91.80;;;;;;1950710;73;21078;-48
2023/04/30 03:45:07;;;;;;;3.90;1.57;;;12.20;91.80;;;;;;1958971;73;21094;-48
2023/04/30 03:47:36;;;;;;;5.30;1.65;;;12.20;91.80;;;;;;1958877;73;21054;-48
2023/04/30 03:50:06;;;;;;;2.58;1.30;;;12.20;91.70;;;;;;1958713;73;21145;-48
2023/04/30 03:52:35;;;;;;;2.67;1.42;;;12.30;91.80;;;;;;1958806;73;21087;-48
2023/04/30 03:55:06;;;;;;;4.03;1.57;;;12.30;91.70;;;;;;1958883;73;20982;-48
2023/04/30 03:57:35;;;;;;;1.55;1.20;;;12.40;91.70;;;;;;1958715;73;21076;-48
2023/04/30 04:00:12;;;;;;;2.60;1.85;;;12.40;91.60;;;;;;1958884;73;21096;-48
2023/04/30 04:02:46;;;;;;;2.87;1.32;;;12.50;91.60;;;;;;1958429;73;21011;-48
2023/04/30 04:05:15;;;;;;;2.08;1.20;;;12.50;91.50;;;;;;1958756;73;20987;-48
2023/04/30 04:07:45;;;;;;;3.50;1.90;;;12.50;91.50;;;;;;1958738;73;21006;-49
2023/04/30 04:10:15;;;;;;;7.40;1.55;;;12.50;91.40;;;;;;1958734;73;21141;-48
2023/04/30 04:12:44;;;;;;;3.17;1.65;;;12.60;91.50;;;;;;1958739;73;21064;-48
2023/04/30 04:15:13;;;;;;;5.55;1.77;;;12.60;91.30;;;;;;1958679;73;21064;-49
2023/04/30 04:17:42;;;;;;;2.22;1.40;;;12.70;91.30;;;;;;1958773;73;21010;-48
2023/04/30 04:20:12;;;;;;;5.03;2.30;;;12.70;91.20;;;;;;1958636;73;21007;-48
2023/04/30 04:22:42;;;;;;;6.33;1.70;;;12.70;91.20;;;;;;1958743;73;21026;-48
2023/04/30 04:25:12;;;;;;;2.75;1.65;;;12.70;91.30;;;;;;1958649;73;21090;-48
2023/04/30 04:27:41;;;;;;;4.53;1.15;;;12.70;91.50;;;;;;1958689;73;21132;-48
2023/04/30 04:30:12;;;;;;;3.00;1.65;;;12.70;91.20;;;;;;1958769;73;21155;-49
2023/04/30 04:32:45;;;;;;;3.10;1.77;;;12.70;91.10;;;;;;1958714;73;21537;-48
2023/04/30 04:35:13;;;;;;;1.30;1.05;;;12.80;91.20;;;;;;1958374;73;21014;-48
2023/04/30 04:37:43;;;;;;;3.92;2.80;;;12.80;91.10;;;;;;1958845;73;21065;-49
2023/04/30 04:40:12;;;;;;;6.28;2.62;;;12.80;91.10;;;;;;1958647;73;21024;-49
2023/04/30 04:42:42;;;;;;;1.92;1.67;;;12.80;91.10;;;;;;1958733;73;21002;-48
2023/04/30 04:45:15;;;;;;;1.82;1.02;;;12.80;90.90;;;;;;1958705;73;21500;-48
2023/04/30 04:47:44;;;;;;;2.20;1.40;;;12.80;90.90;;;;;;1958784;73;21015;-48
2023/04/30 04:50:14;;;;;;;3.22;1.50;;;12.80;90.90;;;;;;1958646;73;21417;-48
2023/04/30 04:52:44;;;;;;;5.25;1.50;;;12.80;90.80;;;;;;1958795;73;21068;-48
2023/04/30 04:55:12;;;;;;;4.58;1.52;;;12.80;90.60;;;;;;1958705;73;20995;-49
2023/04/30 04:57:42;;;;;;;11.63;2.33;;;12.80;90.50;;;;;;1958614;73;20978;-48
2023/04/30 05:00:12;;;;;;;3.75;2.20;;;12.80;90.70;;;;;;1958690;73;21464;-49
2023/04/30 05:02:41;;;;;;;2.52;1.10;;;12.90;90.80;;;;;;1958652;73;21091;-48
2023/04/30 05:05:10;;;;;;;2.55;1.50;;;12.90;90.50;;;;;;1958717;73;21047;-52
2023/04/30 05:07:39;;;;;;;5.30;2.08;;;12.90;90.60;;;;;;1958452;73;21294;-49
2023/04/30 05:10:10;;;;;;;2.95;2.00;;;12.90;90.60;;;;;;1958486;73;21057;-48
2023/04/30 05:12:39;;;;;;;3.42;1.55;;;13.00;90.60;;;;;;1958532;73;21127;-49
2023/04/30 05:15:09;;;;;;;13.95;2.27;;;13.00;90.40;;;;;;1958431;73;21014;-48
2023/04/30 05:17:38;;;;;;;4.28;1.50;;;13.00;90.30;;;;;;1958634;73;21006;-49
2023/04/30 05:20:08;;;;;;;7.53;1.75;;;13.10;90.40;;;;;;1958792;73;21038;-49
2023/04/30 05:22:37;;;;;;;7.28;1.70;;;13.10;90.20;;;;;;1958682;73;21091;-48
2023/04/30 05:25:07;;;;;;;4.25;1.90;;;13.10;90.20;;;;;;1958670;73;21092;-49
2023/04/30 05:27:36;;;;;;;2.12;1.30;;;13.10;90.20;;;;;;1958637;73;21076;-49
2023/04/30 05:30:07;;;;;;;1.30;1.02;;;13.10;90.10;;;;;;1958578;73;21007;-49
2023/04/30 05:32:36;;;;;;;4.90;1.98;;;13.10;90.10;;;;;;1958631;73;21034;-47
2023/04/30 05:35:05;;;;;;;3.72;1.52;;;13.10;90.20;;;;;;1958577;73;21042;-47
2023/04/30 05:37:34;;;;;;;4.05;1.42;;;13.10;90.10;;;;;;1958524;73;21046;-48
2023/04/30 05:40:05;;;;;;;8.60;1.80;;;13.10;90.20;;;;;;1958525;73;21022;-47
2023/04/30 05:42:34;;;;;;;5.47;1.77;;;13.10;90.10;;;;;;1958486;73;21084;-47
2023/04/30 05:45:03;;;;;;;3.00;1.20;;;13.10;90.20;;;;;;1958408;73;21054;-48
2023/04/30 05:47:32;;;;;;;6.50;1.47;;;13.10;89.80;;;;;;1958452;73;21084;-48
2023/04/30 05:50:01;;;;;;;4.10;2.40;;;13.10;90.00;;;;;;1958735;73;21441;-47
2023/04/30 05:52:31;;;;;;;3.87;1.65;;;13.10;90.10;;;;;;1958666;73;21103;-47
2023/04/30 05:55:00;;;;;;;5.37;1.30;;;13.10;90.10;;;;;;1958597;73;21050;-47
2023/04/30 05:57:29;;;;;;;1.50;1.20;;;13.10;90.10;;;;;;1958672;73;21063;-48
2023/04/30 05:59:59;;;;;;;5.67;2.10;;;13.20;90.10;;;;;;1958615;73;21002;-47
2023/04/30 06:02:28;;;;;;;4.05;1.35;;;13.20;90.20;;;;;;1958662;73;21547;-47
2023/04/30 06:04:57;;;;;;;1.67;1.35;;;13.20;90.10;;;;;;1958634;73;21010;-47
2023/04/30 06:07:26;;;;;;;5.87;1.55;;;13.20;90.10;;;;;;1958541;73;21010;-48
2023/04/30 06:09:56;;;;;;;4.80;1.35;;;13.30;90.10;;;;;;1958647;73;21036;-47
2023/04/30 06:12:24;;;;;;;3.30;1.17;;;13.30;89.80;;;;;;1958762;73;21064;-48
2023/04/30 06:14:54;;;;;;;2.25;1.30;;;13.30;89.60;;;;;;1958633;73;21519;-47
2023/04/30 06:17:23;;;;;;;2.92;1.37;;;13.30;89.50;;;;;;1958755;73;21106;-47
2023/04/30 06:19:51;;;;;;;2.33;1.50;;;13.30;89.30;;;;;;1958605;73;21075;-48
2023/04/30 06:22:20;;;;;;;5.83;2.12;;;13.30;89.30;;;;;;1958770;73;21014;-47
2023/04/30 06:24:50;;;;;;;3.15;1.42;;;13.30;89.70;;;;;;1958619;73;21147;-48
2023/04/30 06:27:19;;;;;;;5.05;1.65;;;13.30;89.40;;;;;;1958548;73;21147;-47
2023/04/30 06:29:48;;;;;;;3.37;1.20;;;13.30;88.70;;;;;;1958605;73;21076;-47
2023/04/30 06:32:17;;;;;;;2.25;1.30;;;13.30;88.80;;;;;;1958619;73;21034;-48
2023/04/30 06:34:46;;;;;;;2.58;1.65;;;13.20;88.40;;;;;;1958631;73;20994;-47
2023/04/30 06:37:15;;;;;;;2.98;1.57;;;13.20;88.60;;;;;;1958767;73;21018;-47
2023/04/30 06:39:44;;;;;;;6.83;1.95;;;13.30;88.70;;;;;;1958629;73;21018;-47
2023/04/30 06:42:13;;;;;;;2.58;1.80;;;13.30;88.70;;;;;;1958662;73;21030;-48
2023/04/30 06:44:42;;;;;;;3.62;1.50;;;13.30;87.90;;;;;;1956114;73;21096;-47
2023/04/30 06:47:11;;;;;;;4.67;1.85;;;13.30;88.50;;;;;;1948335;74;21084;-48
2023/04/30 06:49:40;;;;;;;2.85;1.90;;;13.30;88.60;;;;;;1948339;74;21104;-47
2023/04/30 06:52:09;;;;;;;3.50;2.17;;;13.30;88.80;;;;;;1948417;74;21084;-50
2023/04/30 06:54:38;;;;;;;5.95;1.98;;;13.40;88.40;;;;;;1948312;74;21077;-48
2023/04/30 06:57:08;;;;;;;3.77;1.80;;;13.50;88.60;;;;;;1948349;74;21077;-49
2023/04/30 06:59:38;;;;;;;2.92;1.92;;;13.50;88.00;;;;;;1948403;74;21003;-48
2023/04/30 07:02:07;;;;;;;4.22;1.80;;;13.60;87.90;;;;;;1948368;74;21084;-48
2023/04/30 07:04:36;;;;;;;3.95;1.57;;;13.60;87.60;;;;;;1948503;74;21026;-48
2023/04/30 07:07:05;;;;;;;5.00;1.70;;;13.70;87.40;;;;;;1948460;74;21007;-48
2023/04/30 07:09:35;;;;;;;5.28;1.62;;;13.80;87.50;;;;;;1948313;74;21512;-48
2023/04/30 07:12:04;;;;;;;1.92;1.32;;;13.80;87.20;;;;;;1948290;74;21072;-48
2023/04/30 07:14:33;;;;;;;2.22;1.30;;;13.90;86.10;;;;;;1948362;74;21039;-48
2023/04/30 07:17:02;;;;;;;2.72;1.60;;;13.90;86.60;;;;;;1948450;74;21084;-48
2023/04/30 07:19:31;;;;;;;3.52;1.42;;;13.90;86.20;;;;;;1948384;74;21124;-47
2023/04/30 07:22:00;;;;;;;6.62;1.70;;;13.90;85.40;;;;;;1948361;74;21058;-47
2023/04/30 07:24:29;;;;;;;3.10;1.42;;;13.90;85.60;;;;;;1948278;74;21080;-48
2023/04/30 07:27:01;;;;;;;6.92;1.70;;;13.90;86.00;;;;;;1948389;74;22122;-48
2023/04/30 07:29:30;;;;;;;5.40;1.50;;;13.90;85.30;;;;;;1948519;74;21453;-48
2023/04/30 07:31:59;;;;;;;1.37;1.25;;;14.00;85.50;;;;;;1948333;74;21080;-48
2023/04/30 07:34:28;;;;;;;2.67;1.57;;;14.00;83.00;;;;;;1948291;74;21062;-47
2023/04/30 07:36:57;;;;;;;2.27;1.12;;;14.00;84.20;;;;;;1948332;74;21031;-48
2023/04/30 07:39:26;;;;;;;3.42;1.87;;;14.00;84.40;;;;;;1948528;74;21031;-47
2023/04/30 07:41:55;;;;;;;2.55;1.70;;;14.00;84.50;;;;;;1948459;74;21546;-49
2023/04/30 07:44:24;;;;;;;6.90;4.42;;;14.00;85.00;;;;;;1948395;74;21042;-47
2023/04/30 07:46:54;;;;;;;3.62;1.92;;;14.00;84.70;;;;;;1948563;74;21054;-48
2023/04/30 07:49:23;;;;;;;3.47;1.57;;;14.00;84.90;;;;;;1948399;74;21052;-48
2023/04/30 07:51:52;;;;;;;4.58;1.40;;;14.00;84.90;;;;;;1948409;74;21088;-48
2023/04/30 07:54:21;;;;;;;2.00;1.20;;;14.00;84.90;;;;;;1948456;74;21046;-48
2023/04/30 07:56:50;;;;;;;3.50;1.40;;;14.00;84.60;;;;;;1948426;74;21051;-48
2023/04/30 07:59:20;;;;;;;3.00;1.12;;;14.00;84.60;;;;;;1948524;74;21018;-48
2023/04/30 08:01:49;;;;;;;9.85;2.00;;;14.00;83.80;;;;;;1948487;74;21018;-47
2023/04/30 08:04:18;;;;;;;4.17;1.30;;;14.00;84.70;;;;;;1948343;74;21053;-48
2023/04/30 08:06:48;;;;;;;3.17;1.20;;;14.10;84.00;;;;;;1948405;74;21006;-47
2023/04/30 08:09:17;;;;;;;12.28;1.82;;;14.10;83.90;;;;;;1948397;74;21018;-47
2023/04/30 08:11:46;;;;;;;2.83;1.52;;;14.10;83.90;;;;;;1948415;74;20973;-48
2023/04/30 08:14:15;;;;;;;2.80;1.52;;;14.10;84.70;;;;;;1948407;74;21502;-48
2023/04/30 08:16:45;;;;;;;9.80;5.42;;;14.20;84.60;;;;;;1948423;74;21022;-47
2023/04/30 08:19:14;;;;;;;2.80;1.40;;;14.20;84.70;;;;;;1948446;74;21126;-48
2023/04/30 08:21:43;;;;;;;4.15;1.70;;;14.30;84.60;;;;;;1948457;74;21023;-47
2023/04/30 08:24:13;;;;;;;3.87;1.40;;;14.30;83.80;;;;;;1948404;74;21014;-49
2023/04/30 08:26:42;;;;;;;8.28;1.82;;;14.30;83.60;;;;;;1948515;74;21076;-49
2023/04/30 08:29:11;;;;;;;4.28;1.65;;;14.20;83.60;;;;;;1948356;74;21111;-47
2023/04/30 08:31:40;;;;;;;6.15;2.08;;;14.10;83.80;;;;;;1948365;74;21010;-47
2023/04/30 08:34:09;;;;;;;6.60;3.55;;;14.10;84.20;;;;;;1948324;74;21080;-48
2023/04/30 08:36:39;;;;;;;6.78;2.95;;;14.10;84.00;;;;;;1948465;74;20999;-48
2023/04/30 08:39:08;;;;;;;13.32;4.00;;;14.00;84.40;;;;;;1948501;74;21039;-49
2023/04/30 08:41:39;;;;;;;6.20;2.58;;;14.00;84.70;;;;;;1948406;74;21074;-48
2023/04/30 08:44:11;;;;;;;5.72;2.72;;;14.00;84.70;;;;;;1948575;74;21056;-48
2023/04/30 08:46:43;;;;;;;2.17;1.98;;;14.00;84.80;;;;;;1947411;73;21062;-47
2023/04/30 08:49:12;;;;;;;2.95;2.08;;;14.10;84.70;;;;;;1946475;74;21406;-48
2023/04/30 08:51:42;;;;;;;4.85;2.27;;;14.10;85.00;;;;;;1946649;74;21152;-48
2023/04/30 08:54:13;;;;;;;2.52;1.70;;;14.20;85.10;;;;;;1946497;74;20983;-47
2023/04/30 08:56:42;;;;;;;7.33;2.00;;;14.20;84.40;;;;;;1946669;74;21527;-47
2023/04/30 08:59:12;;;;;;;4.20;2.33;;;14.30;84.60;;;;;;1946540;74;21090;-49
2023/04/30 09:01:41;;;;;;;4.87;1.85;;;14.30;84.30;;;;;;1946446;74;21006;-48
2023/04/30 09:04:11;;;;;;;6.28;3.47;;;14.20;84.50;;;;;;1946279;74;21047;-48
2023/04/30 09:06:40;;;;;;;3.02;1.75;;;14.20;84.50;;;;;;1946377;74;21003;-47
2023/04/30 09:09:14;;;;;;;3.70;2.00;;;14.30;84.60;;;;;;1946254;74;21070;-48
2023/04/30 09:11:43;;;;;;;2.42;1.80;;;14.30;84.50;;;;;;1946538;74;21019;-48
2023/04/30 09:14:12;;;;;;;8.00;2.30;;;14.40;84.40;;;;;;1946262;74;21007;-48
2023/04/30 09:16:49;;;;;;;3.12;2.00;;;14.40;84.70;;;;;;1946403;74;21054;-47
2023/04/30 09:19:29;;;;;;;4.95;3.83;;;14.50;85.00;;;;;;1946281;74;21093;-48
2023/04/30 09:21:58;;;;;;;4.65;2.55;;;14.60;84.70;;;;;;1946355;74;21023;-48
2023/04/30 09:24:28;;;;;;;5.05;2.22;;;14.70;84.70;;;;;;1946424;74;21109;-48
2023/04/30 09:26:57;;;;;;;6.28;2.20;;;14.80;84.70;;;;;;1942804;74;21018;-47
2023/04/30 09:29:30;;;;;;;3.40;1.35;;;14.90;84.10;;;;;;1946573;74;21019;-48
2023/04/30 09:32:02;;;;;;;3.80;1.50;;;15.00;83.80;;;;;;1942514;74;21433;-48
2023/04/30 09:34:35;;;;;;;3.58;1.52;;;15.10;83.40;;;;;;1944986;74;21481;-48
2023/04/30 09:37:05;;;;;;;3.52;1.62;;;15.20;83.20;;;;;;1946081;74;21103;-48
2023/04/30 09:39:34;;;;;;;8.05;1.98;;;15.20;83.00;;;;;;1946566;74;21105;-48
2023/04/30 09:42:10;;;;;;;6.12;3.52;;;15.30;82.40;;;;;;1946637;74;21015;-48
2023/04/30 09:44:41;;;;;;;5.47;1.50;;;15.30;82.10;;;;;;1946686;74;21003;-48
2023/04/30 09:47:18;;;;;;;3.25;1.82;;;15.40;82.00;;;;;;1947512;74;21062;-48
2023/04/30 09:49:51;;;;;;;3.33;1.40;;;15.40;82.20;;;;;;1948684;74;21083;-48
2023/04/30 09:52:21;;;;;;;5.65;1.55;;;15.50;81.10;;;;;;1948626;74;21050;-48
2023/04/30 09:54:50;;;;;;;7.67;1.45;;;15.50;80.60;;;;;;1948381;74;21027;-48
2023/04/30 09:57:22;;;;;;;3.20;2.00;;;15.50;81.10;;;;;;1948531;74;21047;-48
2023/04/30 09:59:52;;;;;;;2.85;1.45;;;15.50;81.20;;;;;;1923741;74;20996;-48
2023/04/30 10:02:22;;;;;;;5.80;1.55;;;15.50;81.40;;;;;;1914741;75;21047;-48
2023/04/30 10:04:54;;;;;;;5.45;1.40;;;15.50;81.90;;;;;;1914863;75;21012;-47
2023/04/30 10:07:25;;;;;;;3.05;1.50;;;15.40;81.40;;;;;;1912928;75;21068;-47
2023/04/30 10:10:07;;;;;;;4.03;1.92;;;15.40;81.20;;;;;;1918662;75;21026;-48
2023/04/30 10:12:49;;;;;;;5.00;1.22;;;15.40;81.80;;;;;;1909908;75;21106;-49
2023/04/30 10:15:27;;;;;;;3.92;2.00;;;15.40;81.90;;;;;;1913985;75;21048;-49
2023/04/30 10:18:11;;;;;;;5.47;1.57;;;15.30;81.10;;;;;;1913113;75;21083;-48
2023/04/30 10:20:41;;;;;;;5.67;1.55;;;15.30;81.20;;;;;;1913405;75;21141;-48
2023/04/30 10:23:11;;;;;;;4.12;1.35;;;15.10;81.70;;;;;;1914748;75;21023;-49
2023/04/30 10:25:40;;;;;;;3.42;1.20;;;15.00;82.10;;;;;;1924820;74;21058;-49
2023/04/30 10:28:09;;;;;;;3.55;1.32;;;14.90;82.40;;;;;;1931256;74;21108;-48
2023/04/30 10:30:39;;;;;;;4.03;2.00;;;14.80;82.50;;;;;;1948434;74;21069;-49
2023/04/30 10:33:16;;;;;;;3.22;1.45;;;14.80;82.90;;;;;;1948632;74;21088;-49
2023/04/30 10:35:59;;;;;;;4.75;1.10;;;14.70;83.00;;;;;;1920140;74;21069;-49
2023/04/30 10:38:29;;;;;;;1.47;1.10;;;14.60;83.20;;;;;;1948525;73;21057;-50
2023/04/30 10:41:02;;;;;;;2.22;1.42;;;14.40;83.50;;;;;;1948616;74;21116;-50
2023/04/30 10:43:33;;;;;;;2.50;1.20;;;14.30;83.80;;;;;;1948702;74;21010;-49
2023/04/30 10:46:03;;;;;;;7.50;1.50;;;14.30;84.10;;;;;;1948780;73;21046;-48
2023/04/30 10:48:34;;;;;;;2.77;1.22;;;14.30;84.40;;;;;;1948459;73;21167;-50
2023/04/30 10:51:03;;;;;;;3.00;1.10;;;14.30;84.50;;;;;;1948531;74;21046;-49
2023/04/30 10:53:34;;;;;;;1.95;1.30;;;14.20;84.60;;;;;;1935773;73;21046;-49
2023/04/30 10:56:09;;;;;;;2.70;1.20;;;14.20;84.70;;;;;;1920691;74;21552;-51
2023/04/30 10:58:37;;;;;;;3.33;1.30;;;14.20;84.90;;;;;;1913507;75;21064;-53
2023/04/30 11:01:14;;;;;;;5.30;1.22;;;14.30;85.30;;;;;;1912600;75;21095;-49
2023/04/30 11:04:02;;;;;;;3.37;1.25;;;14.30;85.20;;;;;;1912662;75;21063;-48
2023/04/30 11:06:51;;;;;;;1.98;1.10;;;14.40;85.10;;;;;;1913650;75;21048;-49
2023/04/30 11:09:22;;;;;;;1.52;1.02;;;14.40;85.00;;;;;;1892669;75;21173;-49
2023/04/30 11:11:53;;;;;;;2.58;1.30;;;14.40;85.10;;;;;;1910675;75;21028;-49
2023/04/30 11:14:22;;;;;;;2.08;1.15;;;14.30;85.20;;;;;;1910612;75;21138;-49
2023/04/30 11:16:53;;;;;;;8.50;2.27;;;14.30;85.20;;;;;;1914189;75;21082;-49
2023/04/30 11:19:24;;;;;;;9.28;1.42;;;14.40;85.30;;;;;;1914929;75;21059;-50
2023/04/30 11:22:08;;;;;;;1.40;1.10;;;14.30;85.40;;;;;;1914873;75;21047;-50
2023/04/30 11:24:56;;;;;;;3.42;1.27;;;14.30;85.00;;;;;;1913504;75;21483;-49
2023/04/30 11:27:27;;;;;;;2.25;1.75;;;14.30;85.20;;;;;;1914831;75;21028;-49
2023/04/30 11:29:57;;;;;;;3.83;1.82;;;14.20;84.90;;;;;;1914881;75;21032;-48
2023/04/30 11:32:28;;;;;;;4.53;2.47;;;14.20;85.30;;;;;;1914839;75;21040;-50
2023/04/30 11:34:58;;;;;;;5.17;1.75;;;14.20;85.40;;;;;;1914308;75;21498;-49
2023/04/30 11:37:38;;;;;;;3.15;1.32;;;14.30;85.60;;;;;;1914837;75;21020;-49
2023/04/30 11:40:09;;;;;;;2.75;1.42;;;14.30;85.10;;;;;;1914940;75;21016;-48
2023/04/30 11:42:40;;;;;;;3.17;1.65;;;14.20;85.20;;;;;;1914814;75;21024;-50
2023/04/30 11:45:11;;;;;;;2.08;1.75;;;14.20;85.30;;;;;;1914782;75;21036;-49
2023/04/30 11:47:45;;;;;;;3.62;1.37;;;14.20;85.40;;;;;;1916742;74;21064;-49
2023/04/30 11:50:26;;;;;;;3.93;1.53;;;14.20;85.70;;;;;;1845553;78;21074;-49
2023/04/30 11:52:52;;;;;;;5.10;2.40;;;14.20;85.70;;;;;;1924031;74;21046;-49
2023/04/30 11:55:25;;;;;;;5.62;2.33;;;14.20;86.00;;;;;;1845338;78;21036;-49
2023/04/30 11:57:58;;;;;;;6.37;2.40;;;14.10;86.10;;;;;;1924330;74;21040;-49
2023/04/30 12:00:28;;;;;;;9.70;2.15;;;14.10;86.40;;;;;;1845334;78;21498;-49
2023/04/30 12:03:01;;;;;;;3.12;1.75;;;14.10;86.10;;;;;;1924407;74;20987;-49
2023/04/30 12:05:30;;;;;;;2.65;1.40;;;14.10;86.50;;;;;;1924548;74;21111;-50
2023/04/30 12:08:06;;;;;;;5.17;2.02;;;14.00;86.70;;;;;;1845119;78;21462;-48
2023/04/30 12:10:36;;;;;;;2.35;1.45;;;14.00;86.90;;;;;;1924385;74;21110;-49
2023/04/30 12:13:05;;;;;;;3.98;1.98;;;14.00;87.10;;;;;;1924371;74;21028;-50
2023/04/30 12:15:34;;;;;;;1.52;1.30;;;13.90;87.10;;;;;;1845368;78;21104;-49
2023/04/30 12:18:06;;;;;;;3.45;1.37;;;13.90;87.60;;;;;;1924444;74;21079;-48
2023/04/30 12:20:35;;;;;;;2.58;1.60;;;13.90;87.60;;;;;;1922969;74;21450;-49
2023/04/30 12:23:04;;;;;;;3.40;1.40;;;13.80;88.00;;;;;;1924377;74;21036;-52
2023/04/30 12:25:42;;;;;;;2.47;1.30;;;13.80;88.20;;;;;;1845359;78;21078;-50
2023/04/30 12:28:11;;;;;;;11.80;1.72;;;13.80;88.50;;;;;;1924457;74;21091;-49
2023/04/30 12:30:42;;;;;;;4.75;1.40;;;13.80;88.60;;;;;;1924333;74;20991;-49
2023/04/30 12:33:11;;;;;;;3.92;1.80;;;13.80;88.60;;;;;;1924451;74;21044;-49
2023/04/30 12:35:43;;;;;;;1.25;0.95;;;13.80;88.60;;;;;;1924463;74;21101;-49
2023/04/30 12:38:13;;;;;;;2.27;1.15;;;13.80;88.60;;;;;;1924379;74;21023;-49
2023/04/30 12:40:45;;;;;;;3.47;1.80;;;13.80;88.40;;;;;;1924520;74;21016;-49
2023/04/30 12:43:16;;;;;;;1.77;1.30;;;13.90;88.20;;;;;;1924389;74;21102;-50
2023/04/30 12:45:49;;;;;;;2.80;1.57;;;13.90;88.10;;;;;;1845255;78;21062;-52
2023/04/30 12:48:20;;;;;;;7.95;5.28;;;13.90;88.10;;;;;;1917300;74;21510;-48
2023/04/30 12:50:58;;;;;;;9.23;6.17;;;13.90;88.00;;;;;;1814858;79;21062;-49
2023/04/30 12:53:27;;;;;;;4.35;3.75;;;13.90;87.70;;;;;;1891500;75;21027;-49
2023/04/30 12:56:16;;;;;;;7.37;5.00;;;13.90;87.70;;;;;;1814846;79;21038;-49
2023/04/30 12:58:48;;;;;;;5.47;2.08;;;13.90;87.60;;;;;;1891641;76;21459;-49
2023/04/30 13:01:23;;;;;;;3.50;1.98;;;13.90;87.10;;;;;;1814848;79;21022;-49
2023/04/30 13:03:52;;;;;;;6.05;3.52;;;13.90;87.30;;;;;;1891777;76;21560;-49